Time;durP1;ratioP1;P1;durP2;ratioP2;P2;SDS_P1;SDS_P2;PMS_P1;PMS_P2;Temp;Humidity;BMP_temperature;BMP_pressure;BME280_temperature;BME280_humidity;BME280_pressure;Samples;Min_cycle;Max_cycle;Signal;HPM_P1;HPM_P2
2023/08/15 00:00:39;;;;;;;11.05;6.88;;;18.80;99.90;;;;;;5073713;28;20048;-80
2023/08/15 00:03:05;;;;;;;9.75;7.25;;;18.80;99.90;;;;;;5074630;28;20040;-80
2023/08/15 00:05:30;;;;;;;12.35;7.97;;;18.80;99.90;;;;;;5092425;28;20078;-80
2023/08/15 00:07:56;;;;;;;10.63;6.90;;;18.80;99.90;;;;;;5090341;28;20044;-80
2023/08/15 00:10:22;;;;;;;10.13;6.90;;;18.80;99.90;;;;;;5091111;28;20071;-80
2023/08/15 00:12:50;;;;;;;10.52;7.53;;;18.80;99.90;;;;;;5092554;28;20036;-80
2023/08/15 00:15:15;;;;;;;10.20;7.43;;;18.90;99.90;;;;;;5090816;28;20047;-80
2023/08/15 00:17:41;;;;;;;11.25;7.53;;;19.00;99.90;;;;;;5092136;28;20044;-80
2023/08/15 00:20:10;;;;;;;9.73;7.32;;;18.90;99.90;;;;;;5093297;28;20066;-80
2023/08/15 00:22:35;;;;;;;11.45;7.90;;;18.90;99.90;;;;;;5095581;28;20483;-80
2023/08/15 00:25:01;;;;;;;10.85;8.02;;;18.90;99.90;;;;;;5095277;28;20054;-80
2023/08/15 00:27:27;;;;;;;12.02;7.85;;;18.90;99.90;;;;;;5096725;28;20097;-80
2023/08/15 00:29:52;;;;;;;12.65;7.15;;;18.80;99.90;;;;;;5095540;28;20111;-80
2023/08/15 00:32:18;;;;;;;12.52;7.75;;;18.80;99.90;;;;;;5078389;28;20123;-80
2023/08/15 00:34:46;;;;;;;13.30;7.70;;;18.70;99.90;;;;;;5078339;28;20051;-80
2023/08/15 00:37:12;;;;;;;11.27;7.60;;;18.70;99.90;;;;;;5077112;28;20385;-80
2023/08/15 00:39:38;;;;;;;12.93;8.27;;;18.70;99.90;;;;;;5090021;28;20140;-80
2023/08/15 00:42:04;;;;;;;15.63;8.35;;;18.70;99.90;;;;;;5084846;28;20046;-80
2023/08/15 00:44:29;;;;;;;11.80;7.50;;;18.70;99.90;;;;;;5096548;28;20100;-80
2023/08/15 00:46:55;;;;;;;10.77;7.32;;;18.70;99.90;;;;;;5078053;28;20043;-79
2023/08/15 00:49:21;;;;;;;10.98;7.32;;;18.70;99.90;;;;;;5094831;28;20040;-80
2023/08/15 00:51:47;;;;;;;13.43;7.70;;;18.70;99.90;;;;;;5077341;28;20040;-79
2023/08/15 00:54:14;;;;;;;13.77;8.02;;;18.80;99.90;;;;;;5095542;28;20475;-79
2023/08/15 00:56:40;;;;;;;13.57;7.68;;;18.90;99.90;;;;;;5076428;28;20501;-79
2023/08/15 00:59:06;;;;;;;11.77;7.53;;;18.80;99.90;;;;;;5077116;28;20097;-79
2023/08/15 01:01:33;;;;;;;10.32;8.27;;;18.70;99.90;;;;;;5075955;28;20383;-79
2023/08/15 01:03:59;;;;;;;11.10;7.82;;;18.70;99.90;;;;;;5093982;28;20044;-79
2023/08/15 01:06:25;;;;;;;13.27;9.43;;;18.60;99.90;;;;;;5077402;28;20062;-80
2023/08/15 01:08:51;;;;;;;12.38;9.30;;;18.60;99.90;;;;;;5095317;28;20471;-80
2023/08/15 01:11:17;;;;;;;12.52;8.88;;;18.50;99.90;;;;;;5076259;28;20483;-80
2023/08/15 01:14:02;;;;;;;11.63;8.82;;;18.50;99.90;;;;;;5077108;28;20044;-80
2023/08/15 01:16:37;;;;;;;13.95;9.50;;;18.40;99.90;;;;;;5077594;28;20040;-80
2023/08/15 01:19:21;;;;;;;14.50;10.40;;;18.30;99.90;;;;;;5094188;28;20548;-80
2023/08/15 01:21:48;;;;;;;14.50;9.27;;;18.30;99.90;;;;;;5094124;28;20484;-80
2023/08/15 01:24:15;;;;;;;12.52;9.85;;;18.30;99.90;;;;;;5093798;28;20368;-80
2023/08/15 01:26:40;;;;;;;14.10;9.93;;;18.20;99.90;;;;;;5094109;28;20047;-80
2023/08/15 01:29:07;;;;;;;13.13;10.00;;;18.20;99.90;;;;;;5095091;28;20490;-80
2023/08/15 01:31:43;;;;;;;13.18;9.75;;;18.10;99.90;;;;;;5094247;28;20693;-80
2023/08/15 01:34:33;;;;;;;14.63;10.07;;;18.20;99.90;;;;;;5094215;28;20122;-80
2023/08/15 01:37:08;;;;;;;15.18;9.73;;;18.10;99.90;;;;;;5093196;28;20052;-80
2023/08/15 01:39:38;;;;;;;15.90;10.13;;;18.00;99.90;;;;;;5076654;28;20051;-80
2023/08/15 01:42:06;;;;;;;11.52;9.75;;;18.00;99.90;;;;;;5057335;28;20110;-81
2023/08/15 01:44:33;;;;;;;13.80;9.63;;;18.00;99.90;;;;;;5073861;28;20044;-78
2023/08/15 01:46:59;;;;;;;11.70;9.73;;;17.90;99.90;;;;;;5056411;28;20484;-78
2023/08/15 01:49:25;;;;;;;15.02;10.35;;;17.90;99.90;;;;;;5093423;28;20048;-78
2023/08/15 01:51:51;;;;;;;14.23;9.77;;;17.80;99.90;;;;;;5094646;28;20207;-78
2023/08/15 01:54:17;;;;;;;12.07;9.27;;;17.80;99.90;;;;;;5077545;28;20039;-78
2023/08/15 01:56:42;;;;;;;12.82;9.88;;;17.90;99.90;;;;;;5076333;28;20492;-78
2023/08/15 01:59:08;;;;;;;13.93;9.63;;;17.90;99.90;;;;;;5076797;28;20126;-78
2023/08/15 02:01:34;;;;;;;12.38;9.38;;;17.80;99.90;;;;;;5075654;28;20063;-78
2023/08/15 02:03:59;;;;;;;14.60;9.88;;;17.80;99.90;;;;;;5095249;28;20044;-78
2023/08/15 02:06:25;;;;;;;12.50;9.50;;;17.80;99.90;;;;;;5076115;28;20118;-78
2023/08/15 02:08:51;;;;;;;11.82;9.10;;;17.80;99.90;;;;;;5074632;28;20464;-78
2023/08/15 02:11:16;;;;;;;12.48;9.40;;;17.80;99.90;;;;;;5074687;28;20124;-78
2023/08/15 02:13:42;;;;;;;15.65;10.20;;;17.70;99.90;;;;;;5073569;28;20345;-78
2023/08/15 02:16:11;;;;;;;14.45;9.38;;;17.70;99.90;;;;;;5056514;28;20041;-79
2023/08/15 02:18:36;;;;;;;13.05;9.77;;;17.80;99.90;;;;;;5056172;28;20041;-78
2023/08/15 02:21:02;;;;;;;13.68;10.10;;;17.80;99.90;;;;;;5073715;28;20051;-78
2023/08/15 02:23:28;;;;;;;11.13;9.90;;;17.90;99.90;;;;;;5080921;28;20052;-78
2023/08/15 02:25:53;;;;;;;13.43;9.35;;;17.80;99.90;;;;;;5094061;28;20047;-78
2023/08/15 02:28:19;;;;;;;14.20;10.18;;;17.80;99.90;;;;;;5092376;28;20089;-78
2023/08/15 02:30:45;;;;;;;16.02;10.38;;;17.80;99.90;;;;;;5093372;28;20109;-77
2023/08/15 02:33:11;;;;;;;10.88;9.43;;;17.80;99.90;;;;;;5094798;28;20040;-78
2023/08/15 02:35:42;;;;;;;13.95;10.02;;;17.80;99.90;;;;;;5075132;28;20051;-78
2023/08/15 02:38:08;;;;;;;13.35;10.57;;;17.80;99.90;;;;;;5083975;28;20052;-78
2023/08/15 02:40:34;;;;;;;13.38;10.10;;;17.80;99.90;;;;;;5092256;28;20101;-78
2023/08/15 02:43:00;;;;;;;13.63;10.15;;;17.80;99.90;;;;;;5093567;28;20434;-78
2023/08/15 02:45:28;;;;;;;14.95;10.77;;;17.80;99.90;;;;;;5095519;28;20044;-77
2023/08/15 02:47:54;;;;;;;16.15;10.82;;;17.80;99.90;;;;;;5093682;28;20232;-77
2023/08/15 02:50:19;;;;;;;17.08;10.90;;;17.90;99.90;;;;;;5094956;28;20586;-77
2023/08/15 02:52:45;;;;;;;16.52;10.75;;;17.90;99.90;;;;;;5093638;28;20561;-76
2023/08/15 02:55:10;;;;;;;13.93;10.73;;;17.90;99.90;;;;;;5092593;28;20467;-76
2023/08/15 02:57:37;;;;;;;16.45;10.52;;;17.90;99.90;;;;;;5075902;28;20040;-76
2023/08/15 03:00:03;;;;;;;16.00;10.65;;;17.90;99.90;;;;;;5093883;28;20051;-76
2023/08/15 03:02:28;;;;;;;13.25;9.45;;;17.90;99.90;;;;;;5093622;28;20040;-76
2023/08/15 03:04:54;;;;;;;16.38;10.15;;;17.90;99.90;;;;;;5074455;28;20134;-76
2023/08/15 03:07:20;;;;;;;13.65;9.68;;;17.90;99.90;;;;;;5075748;28;20063;-77
2023/08/15 03:09:45;;;;;;;14.60;8.63;;;17.90;99.90;;;;;;5074574;28;20047;-77
2023/08/15 03:12:11;;;;;;;15.90;9.75;;;17.90;99.90;;;;;;5093556;28;20040;-79
2023/08/15 03:14:37;;;;;;;12.65;9.18;;;17.90;99.90;;;;;;5093415;28;20407;-78
2023/08/15 03:17:03;;;;;;;14.85;9.43;;;17.90;99.90;;;;;;5091837;28;20040;-78
2023/08/15 03:19:29;;;;;;;12.70;9.27;;;17.90;99.90;;;;;;5092260;28;20389;-78
2023/08/15 03:21:57;;;;;;;13.48;9.07;;;17.90;99.90;;;;;;5093134;28;20044;-78
2023/08/15 03:24:26;;;;;;;14.25;9.60;;;17.90;99.90;;;;;;5091197;28;20047;-78
2023/08/15 03:26:52;;;;;;;14.18;9.07;;;17.90;99.90;;;;;;5089675;28;20039;-78
2023/08/15 03:29:20;;;;;;;15.63;8.60;;;17.90;99.90;;;;;;5090454;28;20051;-78
2023/08/15 03:31:49;;;;;;;11.98;8.68;;;17.80;99.90;;;;;;5092130;28;20085;-78
2023/08/15 03:34:15;;;;;;;12.73;8.57;;;17.80;99.90;;;;;;5091854;28;20515;-78
2023/08/15 03:36:41;;;;;;;12.38;7.93;;;17.80;99.90;;;;;;5091211;28;20059;-78
2023/08/15 03:39:06;;;;;;;11.93;9.00;;;17.80;99.90;;;;;;5092407;28;20048;-78
2023/08/15 03:41:35;;;;;;;11.48;8.20;;;17.80;99.90;;;;;;5092906;28;20182;-78
2023/08/15 03:44:01;;;;;;;13.63;8.73;;;17.70;99.90;;;;;;5093174;28;20127;-78
2023/08/15 03:46:26;;;;;;;10.60;8.20;;;17.70;99.90;;;;;;5091794;28;20115;-78
2023/08/15 03:48:52;;;;;;;12.10;8.43;;;17.70;99.90;;;;;;5074524;28;20102;-78
2023/08/15 03:51:18;;;;;;;16.08;8.30;;;17.60;99.90;;;;;;5074703;28;20036;-78
2023/08/15 03:53:43;;;;;;;12.00;6.68;;;17.50;99.90;;;;;;5091288;28;20044;-78
2023/08/15 03:56:09;;;;;;;11.25;7.30;;;17.50;99.90;;;;;;5092557;28;20383;-78
2023/08/15 03:58:35;;;;;;;9.93;6.30;;;17.50;99.90;;;;;;5092488;28;20046;-78
2023/08/15 04:01:01;;;;;;;10.88;5.90;;;17.50;99.90;;;;;;5091846;28;20480;-78
2023/08/15 04:03:27;;;;;;;9.43;5.35;;;17.50;99.90;;;;;;5089407;28;20075;-78
2023/08/15 04:05:52;;;;;;;14.50;6.03;;;17.40;99.90;;;;;;5090731;28;20434;-78
2023/08/15 04:08:18;;;;;;;9.45;5.07;;;17.40;99.90;;;;;;5090542;28;20553;-78
2023/08/15 04:10:45;;;;;;;8.95;4.57;;;17.40;99.90;;;;;;5091190;28;20404;-78
2023/08/15 04:13:11;;;;;;;12.50;4.38;;;17.30;99.90;;;;;;5091778;28;20059;-77
2023/08/15 04:15:41;;;;;;;7.60;4.25;;;17.30;99.90;;;;;;5092274;28;20131;-79
2023/08/15 04:18:08;;;;;;;8.98;3.97;;;17.30;99.90;;;;;;5081619;28;20071;-77
2023/08/15 04:20:38;;;;;;;8.10;4.30;;;17.30;99.90;;;;;;5078430;28;20044;-77
2023/08/15 04:23:05;;;;;;;7.70;3.72;;;17.20;99.90;;;;;;5074424;28;20048;-77
2023/08/15 04:25:32;;;;;;;10.57;4.38;;;17.20;99.90;;;;;;5074459;28;20046;-77
2023/08/15 04:27:57;;;;;;;7.97;4.30;;;17.20;99.90;;;;;;5091688;28;20040;-77
2023/08/15 04:30:23;;;;;;;6.88;3.70;;;17.20;99.90;;;;;;5074189;28;20050;-77
2023/08/15 04:32:49;;;;;;;9.85;4.13;;;17.10;99.90;;;;;;5083217;28;20395;-77
2023/08/15 04:35:14;;;;;;;7.50;3.45;;;17.10;99.90;;;;;;5090181;28;20080;-77
2023/08/15 04:37:43;;;;;;;7.10;3.85;;;17.00;99.90;;;;;;5090663;28;20052;-77
2023/08/15 04:40:12;;;;;;;8.45;3.47;;;17.00;99.90;;;;;;5091312;28;20128;-77
2023/08/15 04:42:39;;;;;;;10.75;4.10;;;16.90;99.90;;;;;;5090954;28;20036;-77
2023/08/15 04:45:08;;;;;;;9.48;3.85;;;16.90;99.90;;;;;;5092238;28;20044;-77
2023/08/15 04:47:36;;;;;;;9.10;4.32;;;16.80;99.90;;;;;;5091815;28;20040;-77
2023/08/15 04:50:02;;;;;;;11.45;4.00;;;16.90;99.90;;;;;;5091595;28;20047;-77
2023/08/15 04:52:28;;;;;;;10.77;3.72;;;16.90;99.90;;;;;;5082304;28;20048;-77
2023/08/15 04:54:53;;;;;;;13.80;4.25;;;16.90;99.90;;;;;;5090791;28;20457;-77
2023/08/15 04:57:19;;;;;;;7.90;3.83;;;16.90;99.90;;;;;;5090246;28;20129;-77
2023/08/15 04:59:45;;;;;;;10.55;4.05;;;16.90;99.90;;;;;;5090470;28;20483;-77
2023/08/15 05:02:13;;;;;;;9.23;3.75;;;16.90;99.90;;;;;;5091313;28;20417;-77
2023/08/15 05:04:39;;;;;;;9.40;3.92;;;17.00;99.90;;;;;;5093755;28;20046;-77
2023/08/15 05:07:04;;;;;;;11.65;4.53;;;17.10;99.90;;;;;;5095920;28;20414;-77
2023/08/15 05:09:31;;;;;;;10.20;3.78;;;17.10;99.90;;;;;;5095208;28;20032;-77
2023/08/15 05:11:57;;;;;;;10.45;3.85;;;17.20;99.90;;;;;;5095360;28;20559;-78
2023/08/15 05:14:22;;;;;;;10.45;3.97;;;17.20;99.90;;;;;;5093731;28;20080;-78
2023/08/15 05:16:50;;;;;;;9.35;3.63;;;17.20;99.90;;;;;;5094190;28;20063;-79
2023/08/15 05:19:15;;;;;;;9.13;4.22;;;17.30;99.90;;;;;;5077372;28;20052;-78
2023/08/15 05:21:41;;;;;;;8.75;4.20;;;17.40;99.90;;;;;;5095487;28;20392;-78
2023/08/15 05:24:07;;;;;;;12.07;4.22;;;17.40;99.90;;;;;;5094148;28;20047;-78
2023/08/15 05:26:33;;;;;;;13.63;5.55;;;17.40;99.90;;;;;;5086511;28;20044;-77
2023/08/15 05:28:59;;;;;;;10.00;3.90;;;17.50;99.90;;;;;;5095557;28;20052;-77
2023/08/15 05:31:24;;;;;;;12.93;4.40;;;17.50;99.90;;;;;;5091824;28;20047;-77
2023/08/15 05:33:50;;;;;;;14.48;4.13;;;17.50;99.90;;;;;;5093709;28;20047;-78
2023/08/15 05:36:16;;;;;;;9.15;3.92;;;17.60;99.90;;;;;;5094861;28;20093;-78
2023/08/15 05:38:41;;;;;;;9.32;4.13;;;17.60;99.90;;;;;;5094029;28;20189;-78
2023/08/15 05:41:07;;;;;;;12.45;4.30;;;17.70;99.90;;;;;;5077035;28;20051;-78
2023/08/15 05:43:33;;;;;;;10.57;3.53;;;17.70;99.90;;;;;;5094248;28;20036;-78
2023/08/15 05:45:59;;;;;;;12.45;3.72;;;17.70;99.90;;;;;;5093652;28;20529;-79
2023/08/15 05:48:24;;;;;;;13.57;3.70;;;17.70;99.90;;;;;;5093263;28;20127;-78
2023/08/15 05:50:50;;;;;;;8.05;3.78;;;17.80;99.90;;;;;;5094538;28;20036;-78
2023/08/15 05:53:15;;;;;;;9.90;3.60;;;17.80;99.90;;;;;;5090759;28;20048;-78
2023/08/15 05:55:42;;;;;;;11.60;3.65;;;17.70;99.90;;;;;;5094668;28;20044;-78
2023/08/15 05:58:08;;;;;;;12.23;4.15;;;17.70;99.90;;;;;;5093899;28;20446;-79
2023/08/15 06:00:34;;;;;;;11.80;3.85;;;17.70;99.90;;;;;;5094728;28;20036;-79
2023/08/15 06:03:00;;;;;;;7.07;3.92;;;17.70;99.90;;;;;;5083234;28;20051;-79
2023/08/15 06:05:29;;;;;;;11.27;4.10;;;17.60;99.90;;;;;;5078799;28;20411;-78
2023/08/15 06:07:55;;;;;;;9.18;3.58;;;17.70;99.90;;;;;;5083669;28;20403;-78
2023/08/15 06:10:21;;;;;;;9.50;4.00;;;17.70;99.90;;;;;;5096761;28;20484;-78
2023/08/15 06:12:47;;;;;;;12.30;4.32;;;17.70;99.90;;;;;;5095499;28;20545;-78
2023/08/15 06:15:13;;;;;;;10.38;4.07;;;17.80;99.90;;;;;;5093991;28;20051;-79
2023/08/15 06:17:39;;;;;;;9.80;4.65;;;17.90;99.90;;;;;;5094092;28;20074;-79
2023/08/15 06:20:05;;;;;;;13.85;4.60;;;17.90;99.90;;;;;;5093831;28;20064;-79
2023/08/15 06:22:31;;;;;;;10.43;4.68;;;18.00;99.90;;;;;;5094644;28;20040;-79
2023/08/15 06:24:57;;;;;;;10.90;4.30;;;18.00;99.90;;;;;;5093176;28;20047;-80
2023/08/15 06:27:22;;;;;;;11.93;4.93;;;18.10;99.90;;;;;;5092543;28;20135;-79
2023/08/15 06:29:48;;;;;;;13.20;4.82;;;18.10;99.90;;;;;;5092794;28;20395;-80
2023/08/15 06:32:34;;;;;;;12.30;3.97;;;18.10;99.90;;;;;;5094029;28;20050;-78
2023/08/15 06:35:03;;;;;;;13.37;4.20;;;18.30;99.90;;;;;;5093053;28;20056;-78
2023/08/15 06:37:29;;;;;;;13.48;4.50;;;18.30;99.90;;;;;;5093900;28;20305;-75
2023/08/15 06:39:55;;;;;;;10.85;3.95;;;18.40;99.90;;;;;;5093970;28;20468;-73
2023/08/15 06:42:20;;;;;;;11.98;3.80;;;18.50;99.90;;;;;;5077913;28;20044;-76
2023/08/15 06:44:46;;;;;;;10.43;3.25;;;18.50;99.90;;;;;;5093965;28;20043;-74
2023/08/15 06:47:12;;;;;;;10.80;3.28;;;18.50;99.90;;;;;;5094117;28;20040;-74
2023/08/15 06:49:37;;;;;;;10.70;3.30;;;18.60;99.90;;;;;;5091508;28;20087;-74
2023/08/15 06:52:03;;;;;;;10.98;3.08;;;18.60;99.90;;;;;;5089818;28;20232;-75
2023/08/15 06:54:30;;;;;;;6.65;2.30;;;18.70;99.90;;;;;;5075872;28;20109;-75
2023/08/15 06:56:55;;;;;;;8.52;2.40;;;18.70;99.90;;;;;;5091126;28;20089;-76
2023/08/15 06:59:23;;;;;;;9.13;2.70;;;18.80;99.90;;;;;;5093669;28;20327;-72
2023/08/15 07:01:52;;;;;;;8.25;2.80;;;18.80;99.90;;;;;;5092456;28;20100;-75
2023/08/15 07:04:18;;;;;;;7.90;2.53;;;18.90;99.90;;;;;;5092452;28;20050;-74
2023/08/15 07:06:44;;;;;;;8.32;2.40;;;19.00;99.90;;;;;;5092292;28;20484;-74
2023/08/15 07:09:11;;;;;;;6.97;2.60;;;19.00;99.90;;;;;;5092643;28;20043;-75
2023/08/15 07:11:36;;;;;;;7.53;2.40;;;19.10;99.90;;;;;;5093193;28;20086;-76
2023/08/15 07:14:02;;;;;;;7.72;2.50;;;19.10;99.90;;;;;;5076313;28;20552;-74
2023/08/15 07:16:28;;;;;;;5.85;2.22;;;19.20;99.90;;;;;;5074413;28;20040;-74
2023/08/15 07:18:54;;;;;;;5.80;2.30;;;19.20;99.90;;;;;;5092891;28;20102;-73
2023/08/15 07:21:19;;;;;;;8.43;2.88;;;19.20;99.90;;;;;;5075259;28;20040;-75
2023/08/15 07:23:45;;;;;;;9.63;2.90;;;19.30;99.90;;;;;;5073976;28;20093;-74
2023/08/15 07:26:11;;;;;;;7.70;2.17;;;19.30;99.90;;;;;;5074854;28;20048;-74
2023/08/15 07:28:40;;;;;;;5.38;2.50;;;19.40;99.90;;;;;;5092729;28;20054;-74
2023/08/15 07:31:05;;;;;;;6.38;1.70;;;19.50;99.90;;;;;;5091326;28;20475;-74
2023/08/15 07:33:31;;;;;;;7.70;2.35;;;19.50;99.90;;;;;;5092900;28;20079;-74
2023/08/15 07:35:57;;;;;;;5.82;1.92;;;19.60;99.90;;;;;;5092814;28;20491;-74
2023/08/15 07:38:23;;;;;;;4.93;1.75;;;19.80;99.90;;;;;;5073787;28;20135;-74
2023/08/15 07:40:49;;;;;;;6.25;1.90;;;19.90;99.90;;;;;;5074822;28;20044;-76
2023/08/15 07:43:18;;;;;;;6.57;2.30;;;20.50;99.90;;;;;;5093034;28;20044;-75
2023/08/15 07:45:43;;;;;;;6.18;1.65;;;21.70;99.90;;;;;;5074140;28;20048;-76
2023/08/15 07:48:09;;;;;;;4.30;1.48;;;22.80;99.90;;;;;;5077381;28;20032;-75
2023/08/15 07:50:35;;;;;;;7.13;2.10;;;23.60;99.90;;;;;;5092800;28;20044;-76
2023/08/15 07:53:01;;;;;;;5.72;1.58;;;24.50;99.90;;;;;;5085511;28;20421;-75
2023/08/15 07:55:30;;;;;;;3.33;1.08;;;25.00;99.90;;;;;;5091345;28;20073;-75
2023/08/15 07:57:56;;;;;;;4.57;1.50;;;25.00;99.90;;;;;;5090700;28;20159;-78
2023/08/15 08:00:22;;;;;;;4.43;1.58;;;25.30;99.90;;;;;;5091478;28;20123;-74
2023/08/15 08:02:48;;;;;;;4.55;1.50;;;25.90;99.90;;;;;;5079728;28;20055;-74
2023/08/15 08:05:15;;;;;;;5.18;1.63;;;26.00;99.90;;;;;;5091759;28;20063;-77
2023/08/15 08:07:43;;;;;;;5.82;1.70;;;26.10;99.90;;;;;;5092597;28;20043;-77
2023/08/15 08:10:09;;;;;;;8.98;1.70;;;26.90;99.90;;;;;;5088343;28;20083;-77
2023/08/15 08:12:35;;;;;;;5.32;1.63;;;27.30;99.90;;;;;;5091557;28;20040;-77
2023/08/15 08:15:01;;;;;;;4.47;1.80;;;27.50;99.40;;;;;;5091365;28;20071;-77
2023/08/15 08:17:27;;;;;;;5.65;1.90;;;27.50;99.90;;;;;;5092224;28;20036;-77
2023/08/15 08:19:53;;;;;;;5.57;1.60;;;27.60;98.50;;;;;;5091513;28;20345;-77
2023/08/15 08:22:19;;;;;;;4.45;1.80;;;27.50;98.90;;;;;;5092340;28;20145;-77
2023/08/15 08:24:49;;;;;;;6.88;1.90;;;27.50;99.40;;;;;;5077433;28;20048;-77
2023/08/15 08:27:15;;;;;;;6.65;1.80;;;27.90;98.50;;;;;;5091735;28;20040;-76
2023/08/15 08:29:40;;;;;;;6.88;1.70;;;28.10;98.80;;;;;;5090830;28;20054;-76
2023/08/15 08:32:07;;;;;;;5.47;1.60;;;28.20;98.60;;;;;;5092654;28;20043;-76
2023/08/15 08:34:33;;;;;;;6.75;1.70;;;28.40;97.80;;;;;;5082628;28;20449;-76
2023/08/15 08:36:58;;;;;;;6.22;2.00;;;28.10;98.00;;;;;;5092581;28;20098;-76
2023/08/15 08:39:24;;;;;;;5.65;1.70;;;28.20;98.60;;;;;;5099954;28;20046;-76
2023/08/15 08:41:50;;;;;;;4.85;1.90;;;28.10;98.60;;;;;;5095516;28;20044;-76
2023/08/15 08:44:17;;;;;;;7.53;2.00;;;27.90;97.80;;;;;;5081612;28;20083;-76
2023/08/15 08:46:44;;;;;;;5.90;1.80;;;27.10;98.70;;;;;;5095052;28;20122;-76
2023/08/15 08:49:11;;;;;;;6.35;1.90;;;27.30;98.80;;;;;;5095527;28;20480;-76
2023/08/15 08:51:38;;;;;;;5.63;1.83;;;27.80;98.40;;;;;;5094778;28;20055;-76
2023/08/15 08:54:04;;;;;;;5.28;1.70;;;28.50;98.60;;;;;;5093383;28;20551;-76
2023/08/15 08:56:32;;;;;;;4.82;1.50;;;28.80;96.90;;;;;;5094186;28;20130;-77
2023/08/15 08:59:08;;;;;;;4.22;1.63;;;29.30;96.10;;;;;;5096154;28;20169;-76
2023/08/15 09:01:36;;;;;;;5.55;2.15;;;29.30;95.30;;;;;;5095124;28;20113;-76
2023/08/15 09:04:02;;;;;;;5.65;1.50;;;29.30;95.20;;;;;;5095903;28;20200;-77
2023/08/15 09:06:28;;;;;;;4.28;1.60;;;29.20;95.50;;;;;;5094268;28;20059;-76
2023/08/15 09:08:54;;;;;;;4.40;1.52;;;29.30;94.80;;;;;;5094728;28;20439;-76
2023/08/15 09:11:22;;;;;;;3.92;1.40;;;29.20;95.00;;;;;;5095925;28;20125;-76
2023/08/15 09:13:55;;;;;;;4.47;1.17;;;29.00;94.80;;;;;;5094704;28;20052;-76
2023/08/15 09:16:21;;;;;;;3.92;1.52;;;29.20;94.40;;;;;;5076871;28;20048;-76
2023/08/15 09:18:47;;;;;;;3.80;1.42;;;29.20;94.90;;;;;;5091699;28;20044;-76
2023/08/15 09:21:13;;;;;;;4.20;1.48;;;29.50;94.20;;;;;;5077529;28;20122;-75
2023/08/15 09:23:42;;;;;;;3.65;1.50;;;29.60;95.00;;;;;;5076629;28;20567;-75
2023/08/15 09:26:14;;;;;;;4.32;1.80;;;29.90;94.80;;;;;;5077550;28;20055;-77
2023/08/15 09:28:47;;;;;;;3.67;1.48;;;29.90;94.30;;;;;;5091840;28;20050;-76
2023/08/15 09:31:19;;;;;;;5.13;1.60;;;29.30;95.20;;;;;;5093605;28;20052;-76
2023/08/15 09:33:45;;;;;;;4.60;1.65;;;29.30;95.00;;;;;;5094325;28;20068;-75
2023/08/15 09:36:11;;;;;;;3.85;1.70;;;29.30;94.80;;;;;;5095191;28;20412;-75
2023/08/15 09:38:38;;;;;;;6.43;2.17;;;29.20;94.40;;;;;;5094278;28;20073;-75
2023/08/15 09:41:04;;;;;;;6.35;2.13;;;29.40;95.10;;;;;;5094235;28;20052;-76
2023/08/15 09:43:33;;;;;;;5.78;2.33;;;28.60;95.00;;;;;;5094719;28;20124;-76
2023/08/15 09:45:59;;;;;;;5.07;2.00;;;28.40;95.20;;;;;;5094741;28;20472;-74
2023/08/15 09:48:28;;;;;;;6.47;2.00;;;28.10;96.50;;;;;;5094889;28;20447;-76
2023/08/15 09:50:55;;;;;;;5.20;1.95;;;28.70;95.90;;;;;;5092726;28;20904;-77
2023/08/15 09:53:23;;;;;;;4.15;1.63;;;28.70;96.00;;;;;;5080136;28;20103;-76
2023/08/15 09:55:49;;;;;;;4.47;1.77;;;28.90;95.40;;;;;;5094612;28;20044;-77
2023/08/15 09:58:16;;;;;;;6.25;2.20;;;29.30;95.20;;;;;;5076195;28;20044;-76
2023/08/15 10:00:51;;;;;;;5.15;2.08;;;29.60;95.60;;;;;;5076513;28;20052;-76
2023/08/15 10:03:20;;;;;;;5.88;2.30;;;30.20;95.70;;;;;;5094545;28;20048;-77
2023/08/15 10:05:51;;;;;;;5.72;2.28;;;30.80;95.30;;;;;;5092450;28;20373;-76
2023/08/15 10:08:19;;;;;;;4.80;1.70;;;30.60;94.10;;;;;;5094329;28;20368;-82
2023/08/15 10:10:48;;;;;;;7.65;2.38;;;30.40;93.20;;;;;;5088311;28;20036;-73
2023/08/15 10:13:15;;;;;;;5.53;2.28;;;29.80;93.90;;;;;;5078480;28;20472;-75
2023/08/15 10:15:42;;;;;;;5.60;2.13;;;29.90;94.40;;;;;;5075743;28;20055;-73
2023/08/15 10:18:08;;;;;;;5.05;1.90;;;29.60;94.60;;;;;;5093667;28;20060;-73
2023/08/15 10:20:37;;;;;;;5.10;2.13;;;29.60;93.90;;;;;;5075450;28;20044;-73
2023/08/15 10:23:07;;;;;;;5.68;1.95;;;29.60;94.90;;;;;;5094282;28;20036;-73
2023/08/15 10:25:35;;;;;;;5.05;1.75;;;29.60;94.60;;;;;;5094297;28;20074;-74
2023/08/15 10:28:06;;;;;;;7.53;1.98;;;30.20;94.20;;;;;;5075430;28;20123;-72
2023/08/15 10:30:40;;;;;;;5.10;1.77;;;30.40;93.50;;;;;;5076718;28;20458;-73
2023/08/15 10:33:12;;;;;;;7.13;2.03;;;30.20;93.00;;;;;;5091916;28;20059;-73
2023/08/15 10:35:41;;;;;;;5.22;2.08;;;29.90;93.00;;;;;;5090907;28;20048;-75
2023/08/15 10:38:15;;;;;;;5.95;1.90;;;29.80;93.60;;;;;;5094188;28;20093;-74
2023/08/15 10:40:43;;;;;;;5.07;2.00;;;29.60;92.70;;;;;;5093024;28;20044;-74
2023/08/15 10:43:14;;;;;;;5.97;1.90;;;29.30;94.60;;;;;;5080146;28;20039;-71
2023/08/15 10:45:52;;;;;;;6.05;2.13;;;29.70;93.80;;;;;;5075492;28;20484;-74
2023/08/15 10:48:43;;;;;;;4.90;2.03;;;30.00;93.50;;;;;;5075007;28;20052;-74
2023/08/15 10:51:39;;;;;;;5.00;2.00;;;30.40;94.10;;;;;;5075975;28;20055;-74
2023/08/15 10:54:13;;;;;;;5.00;1.90;;;30.80;92.90;;;;;;5062278;28;20120;-75
2023/08/15 10:56:44;;;;;;;3.53;1.70;;;31.10;92.90;;;;;;5072175;28;20041;-75
2023/08/15 10:59:13;;;;;;;3.90;1.50;;;31.00;91.70;;;;;;5075975;28;20107;-74
2023/08/15 11:01:44;;;;;;;2.78;1.30;;;30.70;91.40;;;;;;5092117;28;20032;-75
2023/08/15 11:04:18;;;;;;;4.90;1.48;;;30.40;91.50;;;;;;5093713;28;20045;-76
2023/08/15 11:06:46;;;;;;;3.50;1.50;;;30.30;91.70;;;;;;5092621;28;20380;-75
2023/08/15 11:09:12;;;;;;;4.22;1.50;;;29.90;93.00;;;;;;5092677;28;20040;-75
2023/08/15 11:11:38;;;;;;;3.45;1.33;;;29.80;92.30;;;;;;5079851;28;20400;-75
2023/08/15 11:14:13;;;;;;;5.57;1.60;;;29.60;92.20;;;;;;5093461;28;20051;-75
2023/08/15 11:16:39;;;;;;;6.13;1.50;;;29.00;92.20;;;;;;5091985;28;20494;-74
2023/08/15 11:19:04;;;;;;;5.30;1.45;;;28.50;93.20;;;;;;5080756;28;20047;-76
2023/08/15 11:21:30;;;;;;;4.25;1.80;;;28.00;93.00;;;;;;5095802;28;20156;-73
2023/08/15 11:24:01;;;;;;;6.40;1.67;;;28.00;93.10;;;;;;5089253;28;20064;-72
2023/08/15 11:26:27;;;;;;;5.00;1.70;;;28.00;93.40;;;;;;5074879;28;20452;-71
2023/08/15 11:28:53;;;;;;;4.18;1.50;;;27.10;94.00;;;;;;5073987;28;20039;-71
2023/08/15 11:31:18;;;;;;;4.88;1.80;;;27.00;94.20;;;;;;5080591;28;20039;-72
2023/08/15 11:33:48;;;;;;;5.00;1.77;;;26.70;94.20;;;;;;5074434;28;20055;-72
2023/08/15 11:36:14;;;;;;;4.45;1.48;;;26.50;94.60;;;;;;5091840;28;20056;-72
2023/08/15 11:38:39;;;;;;;4.40;1.55;;;26.50;94.90;;;;;;5092074;28;20056;-72
2023/08/15 11:41:06;;;;;;;3.42;1.50;;;26.70;95.00;;;;;;5077378;28;20040;-73
2023/08/15 11:43:33;;;;;;;6.82;2.05;;;27.00;94.40;;;;;;5091499;28;20181;-74
2023/08/15 11:46:03;;;;;;;4.80;1.67;;;27.70;95.20;;;;;;5092835;28;20507;-76
2023/08/15 11:48:30;;;;;;;5.30;1.70;;;28.10;94.40;;;;;;5074579;28;20040;-75
2023/08/15 11:50:56;;;;;;;5.82;2.05;;;28.00;93.30;;;;;;5085143;28;20082;-75
2023/08/15 11:53:25;;;;;;;4.72;1.98;;;27.90;93.90;;;;;;5077225;28;20075;-75
2023/08/15 11:55:51;;;;;;;6.22;1.70;;;27.90;94.10;;;;;;5092458;28;20040;-74
2023/08/15 11:58:35;;;;;;;6.60;1.70;;;27.80;94.20;;;;;;5074992;28;20135;-74
2023/08/15 12:01:11;;;;;;;6.55;1.60;;;28.30;95.20;;;;;;5092774;28;20631;-76
2023/08/15 12:03:38;;;;;;;5.68;1.70;;;28.30;93.40;;;;;;5074618;28;20105;-75
2023/08/15 12:06:09;;;;;;;3.72;1.48;;;28.10;94.20;;;;;;5090526;28;20101;-75
2023/08/15 12:08:35;;;;;;;6.05;1.60;;;28.10;93.70;;;;;;5091048;28;20063;-75
2023/08/15 12:11:05;;;;;;;2.83;1.30;;;28.20;93.40;;;;;;5092640;28;20040;-75
2023/08/15 12:13:38;;;;;;;3.55;1.30;;;28.50;92.30;;;;;;5089947;28;20096;-75
2023/08/15 12:16:06;;;;;;;4.03;1.48;;;28.30;92.20;;;;;;5091887;28;20040;-75
2023/08/15 12:18:32;;;;;;;3.80;1.20;;;28.20;91.60;;;;;;5073126;28;20492;-75
2023/08/15 12:20:59;;;;;;;4.03;1.40;;;28.30;91.50;;;;;;5074428;28;20044;-75
2023/08/15 12:23:25;;;;;;;2.70;1.20;;;28.30;92.20;;;;;;5074730;28;20048;-76
2023/08/15 12:25:51;;;;;;;3.35;1.20;;;28.60;92.50;;;;;;5082598;28;20479;-75
2023/08/15 12:28:20;;;;;;;2.75;0.90;;;28.50;91.80;;;;;;5092135;28;20123;-75
2023/08/15 12:30:46;;;;;;;3.70;1.10;;;28.30;92.20;;;;;;5090897;28;20123;-75
2023/08/15 12:33:12;;;;;;;3.95;1.40;;;28.20;93.00;;;;;;5090659;28;20044;-75
2023/08/15 12:35:37;;;;;;;3.70;1.30;;;28.20;92.80;;;;;;5090656;28;20044;-75
2023/08/15 12:38:03;;;;;;;3.97;1.20;;;28.00;92.80;;;;;;5091315;28;20047;-75
2023/08/15 12:40:32;;;;;;;5.32;1.30;;;28.10;92.30;;;;;;5091064;28;20487;-76